Time,TemperatureF,DewpointF,PressureIn,WindDirection,WindDirectionDegrees,WindSpeedMPH,WindSpeedGustMPH,Humidity,HourlyPrecipIn,Conditions,Clouds,dailyrainin,SoftwareType,DateUTC
2014-01-21 00:11:00,13.4,9.0,30.85,SSW,196,0.0,-999.0,82,-99.99,,,0.00,weatherlink.com 1.10,2014-01-21 07:11:00,
2014-01-21 00:26:00,13.4,9.0,30.85,SSW,196,0.0,-999.0,82,-99.99,,,0.00,weatherlink.com 1.10,2014-01-21 07:26:00,
2014-01-21 00:41:00,12.8,8.0,30.86,SSW,196,0.0,-999.0,82,-99.99,,,0.00,weatherlink.com 1.10,2014-01-21 07:41:00,
2014-01-21 00:56:00,12.2,8.0,30.85,SSW,196,0.0,-999.0,83,-99.99,,,0.00,weatherlink.com 1.10,2014-01-21 07:56:00,
2014-01-21 01:11:00,11.8,7.0,30.85,SSW,196,0.0,-999.0,82,-99.99,,,0.00,weatherlink.com 1.10,2014-01-21 08:11:00,
2014-01-21 01:26:00,11.1,7.0,30.85,SSW,196,0.0,-999.0,83,-99.99,,,0.00,weatherlink.com 1.10,2014-01-21 08:26:00,
2014-01-21 01:41:00,10.7,7.0,30.85,SSW,196,0.0,-999.0,85,-99.99,,,0.00,weatherlink.com 1.10,2014-01-21 08:41:00,
2014-01-21 01:56:00,10.8,7.0,30.84,SSW,196,0.0,-999.0,86,-99.99,,,0.00,weatherlink.com 1.10,2014-01-21 08:56:00,
2014-01-21 02:11:00,10.4,6.0,30.85,SSW,196,0.0,-999.0,82,-99.99,,,0.00,weatherlink.com 1.10,2014-01-21 09:11:00,
2014-01-21 02:26:00,9.2,5.0,30.85,SSW,196,0.0,-999.0,84,-99.99,,,0.00,weatherlink.com 1.10,2014-01-21 09:26:00,
2014-01-21 02:41:00,8.8,6.0,30.85,SSW,196,0.0,-999.0,88,-99.99,,,0.00,weatherlink.com 1.10,2014-01-21 09:41:00,
2014-01-21 02:56:00,8.9,6.0,30.85,SSW,196,0.0,-999.0,88,-99.99,,,0.00,weatherlink.com 1.10,2014-01-21 09:56:00,
2014-01-21 03:11:00,9.0,6.0,30.85,SSW,196,0.0,-999.0,87,-99.99,,,0.00,weatherlink.com 1.10,2014-01-21 10:11:00,
2014-01-21 03:26:00,8.9,6.0,30.86,SSW,196,0.0,-999.0,86,-99.99,,,0.00,weatherlink.com 1.10,2014-01-21 10:26:00,
2014-01-21 03:41:00,8.0,4.0,30.86,SSW,196,0.0,-999.0,85,-99.99,,,0.00,weatherlink.com 1.10,2014-01-21 10:41:00,
2014-01-21 03:56:00,7.5,5.0,30.85,SSW,196,0.0,-999.0,88,-99.99,,,0.00,weatherlink.com 1.10,2014-01-21 10:56:00,
2014-01-21 04:11:00,7.3,5.0,30.86,SSW,196,0.0,-999.0,89,-99.99,,,0.00,weatherlink.com 1.10,2014-01-21 11:11:00,
2014-01-21 04:26:00,7.1,4.0,30.86,SSW,196,0.0,-999.0,88,-99.99,,,0.00,weatherlink.com 1.10,2014-01-21 11:26:00,
2014-01-21 04:41:00,6.6,3.0,30.86,SSW,196,0.0,-999.0,86,-99.99,,,0.00,weatherlink.com 1.10,2014-01-21 11:41:00,
2014-01-21 04:56:00,6.2,3.0,30.86,SSW,196,0.0,-999.0,88,-99.99,,,0.00,weatherlink.com 1.10,2014-01-21 11:56:00,
2014-01-21 05:11:00,6.1,3.0,30.86,SSW,196,0.0,-999.0,88,-99.99,,,0.00,weatherlink.com 1.10,2014-01-21 12:11:00,
2014-01-21 05:26:00,5.8,3.0,30.86,SSW,196,0.0,-999.0,86,-99.99,,,0.00,weatherlink.com 1.10,2014-01-21 12:26:00,
2014-01-21 05:41:00,5.4,3.0,30.86,SSW,196,0.0,-999.0,88,-99.99,,,0.00,weatherlink.com 1.10,2014-01-21 12:41:00,
2014-01-21 05:56:00,5.7,3.0,30.85,SSW,196,0.0,-999.0,88,-99.99,,,0.00,weatherlink.com 1.10,2014-01-21 12:56:00,
2014-01-21 06:11:00,5.7,3.0,30.84,SSW,196,0.0,-999.0,87,-99.99,,,0.00,weatherlink.com 1.10,2014-01-21 13:11:00,
2014-01-21 06:26:00,5.0,1.0,30.84,SSW,196,0.0,-999.0,82,-99.99,,,0.00,weatherlink.com 1.10,2014-01-21 13:26:00,
2014-01-21 06:41:00,3.7,0.0,30.85,SSW,196,0.0,-999.0,85,-99.99,,,0.00,weatherlink.com 1.10,2014-01-21 13:41:00,
2014-01-21 06:56:00,2.9,-1.0,30.86,SSW,196,0.0,-999.0,82,-99.99,,,0.00,weatherlink.com 1.10,2014-01-21 13:56:00,
2014-01-21 07:11:00,2.0,-2.0,30.86,SSW,196,0.0,-999.0,83,-99.99,,,0.00,weatherlink.com 1.10,2014-01-21 14:11:00,
2014-01-21 07:26:00,1.4,-2.0,30.86,SSW,196,0.0,-999.0,84,-99.99,,,0.00,weatherlink.com 1.10,2014-01-21 14:26:00,
2014-01-21 07:41:00,1.4,-2.0,30.86,SSW,196,0.0,-999.0,87,-99.99,,,0.00,weatherlink.com 1.10,2014-01-21 14:41:00,
2014-01-21 07:56:00,1.5,-2.0,30.87,SSW,196,0.0,-999.0,85,-99.99,,,0.00,weatherlink.com 1.10,2014-01-21 14:56:00,
2014-01-21 08:11:00,1.7,-2.0,30.87,SSW,196,0.0,-999.0,86,-99.99,,,0.00,weatherlink.com 1.10,2014-01-21 15:11:00,
2014-01-21 08:26:00,2.1,-1.0,30.87,SSW,196,0.0,-999.0,87,-99.99,,,0.00,weatherlink.com 1.10,2014-01-21 15:26:00,
2014-01-21 08:41:00,3.1,0.0,30.88,SSW,196,0.0,-999.0,87,-99.99,,,0.00,weatherlink.com 1.10,2014-01-21 15:41:00,
2014-01-21 08:56:00,5.5,3.0,30.87,SSW,196,0.0,-999.0,89,-99.99,,,0.00,weatherlink.com 1.10,2014-01-21 15:56:00,
2014-01-21 09:11:00,8.5,5.0,30.87,SSW,196,0.0,-999.0,85,-99.99,,,0.00,weatherlink.com 1.10,2014-01-21 16:11:00,
2014-01-21 09:26:00,9.7,4.0,30.86,SSW,196,0.0,-999.0,78,-99.99,,,0.00,weatherlink.com 1.10,2014-01-21 16:26:00,
2014-01-21 09:41:00,9.8,4.0,30.87,SSW,196,0.0,-999.0,77,-99.99,,,0.00,weatherlink.com 1.10,2014-01-21 16:41:00,
2014-01-21 09:56:00,10.1,4.0,30.87,SSW,196,0.0,-999.0,75,-99.99,,,0.00,weatherlink.com 1.10,2014-01-21 16:56:00,
2014-01-21 10:11:00,10.1,2.0,30.87,SSW,196,0.0,-999.0,71,-99.99,,,0.00,weatherlink.com 1.10,2014-01-21 17:11:00,
2014-01-21 10:26:00,9.2,3.0,30.87,SSW,196,0.0,-999.0,74,-99.99,,,0.00,weatherlink.com 1.10,2014-01-21 17:26:00,
2014-01-21 10:41:00,9.4,3.0,30.87,SSW,196,0.0,-999.0,74,-99.99,,,0.00,weatherlink.com 1.10,2014-01-21 17:41:00,
2014-01-21 10:57:00,10.4,4.0,30.87,SSW,196,0.0,-999.0,74,-99.99,,,0.00,weatherlink.com 1.10,2014-01-21 17:57:00,
2014-01-21 11:11:00,11.2,4.0,30.86,SSW,196,0.0,-999.0,72,-99.99,,,0.00,weatherlink.com 1.10,2014-01-21 18:11:00,
2014-01-21 11:26:00,12.7,5.0,30.86,SSW,196,0.0,-999.0,71,-99.99,,,0.00,weatherlink.com 1.10,2014-01-21 18:26:00,
2014-01-21 11:41:00,13.7,5.0,30.85,SSW,196,0.0,-999.0,69,-99.99,,,0.00,weatherlink.com 1.10,2014-01-21 18:41:00,
2014-01-21 11:55:00,14.3,5.0,30.84,SSW,196,0.0,-999.0,67,-99.99,,,0.00,weatherlink.com 1.10,2014-01-21 18:55:00,
2014-01-21 12:10:00,15.3,5.0,30.83,SSW,196,0.0,-999.0,65,-99.99,,,0.00,weatherlink.com 1.10,2014-01-21 19:10:00,
2014-01-21 12:25:00,16.3,6.0,30.82,SSW,196,0.0,-999.0,64,-99.99,,,0.00,weatherlink.com 1.10,2014-01-21 19:25:00,
2014-01-21 12:40:00,17.0,7.0,30.81,SSW,196,0.0,-999.0,64,-99.99,,,0.00,weatherlink.com 1.10,2014-01-21 19:40:00,
2014-01-21 12:55:00,18.0,7.0,30.80,SSW,196,0.0,-999.0,62,-99.99,,,0.00,weatherlink.com 1.10,2014-01-21 19:55:00,
2014-01-21 13:10:00,19.3,8.0,30.79,SSW,196,0.0,-999.0,61,-99.99,,,0.00,weatherlink.com 1.10,2014-01-21 20:10:00,
2014-01-21 13:25:00,20.8,8.0,30.78,SSW,196,0.0,-999.0,58,-99.99,,,0.00,weatherlink.com 1.10,2014-01-21 20:25:00,
2014-01-21 13:40:00,21.3,7.0,30.77,SSW,196,0.0,-999.0,55,-99.99,,,0.00,weatherlink.com 1.10,2014-01-21 20:40:00,
2014-01-21 13:55:00,22.1,8.0,30.76,SSW,196,0.0,-999.0,55,-99.99,,,0.00,weatherlink.com 1.10,2014-01-21 20:55:00,
2014-01-21 14:10:00,23.1,8.0,30.75,SSW,196,0.0,-999.0,53,-99.99,,,0.00,weatherlink.com 1.10,2014-01-21 21:10:00,
2014-01-21 14:25:00,23.3,8.0,30.75,SSW,196,0.0,-999.0,53,-99.99,,,0.00,weatherlink.com 1.10,2014-01-21 21:25:00,
2014-01-21 14:40:00,24.0,9.0,30.75,SSW,196,0.0,-999.0,53,-99.99,,,0.00,weatherlink.com 1.10,2014-01-21 21:40:00,
2014-01-21 14:55:00,23.0,9.0,30.74,SSW,196,0.0,-999.0,55,-99.99,,,0.00,weatherlink.com 1.10,2014-01-21 21:55:00,
2014-01-21 15:10:00,22.0,8.0,30.75,SSW,196,0.0,-999.0,56,-99.99,,,0.00,weatherlink.com 1.10,2014-01-21 22:10:00,
2014-01-21 15:25:00,21.5,8.0,30.75,SSW,196,0.0,-999.0,57,-99.99,,,0.00,weatherlink.com 1.10,2014-01-21 22:25:00,
2014-01-21 15:40:00,21.4,9.0,30.75,SSW,196,0.0,-999.0,58,-99.99,,,0.00,weatherlink.com 1.10,2014-01-21 22:40:00,
2014-01-21 15:55:00,21.6,9.0,30.74,SSW,196,0.0,-999.0,59,-99.99,,,0.00,weatherlink.com 1.10,2014-01-21 22:55:00,
2014-01-21 16:10:00,21.7,9.0,30.74,SSW,196,0.0,-999.0,58,-99.99,,,0.00,weatherlink.com 1.10,2014-01-21 23:10:00,
2014-01-21 16:25:00,21.6,9.0,30.73,SSW,196,0.0,-999.0,58,-99.99,,,0.00,weatherlink.com 1.10,2014-01-21 23:25:00,
2014-01-21 16:40:00,20.8,8.0,30.73,SSW,196,0.0,-999.0,57,-99.99,,,0.00,weatherlink.com 1.10,2014-01-21 23:40:00,
2014-01-21 16:55:00,19.9,8.0,30.72,SSW,196,0.0,-999.0,59,-99.99,,,0.00,weatherlink.com 1.10,2014-01-21 23:55:00,
2014-01-21 17:10:00,18.6,7.0,30.72,SSW,196,0.0,-999.0,61,-99.99,,,0.00,weatherlink.com 1.10,2014-01-22 00:10:00,
2014-01-21 17:25:00,17.6,7.0,30.72,SSW,196,0.0,-999.0,63,-99.99,,,0.00,weatherlink.com 1.10,2014-01-22 00:25:00,
2014-01-21 17:40:00,16.8,7.0,30.73,SSW,196,0.0,-999.0,66,-99.99,,,0.00,weatherlink.com 1.10,2014-01-22 00:40:00,
2014-01-21 17:55:00,16.5,7.0,30.73,SSW,196,0.0,-999.0,66,-99.99,,,0.00,weatherlink.com 1.10,2014-01-22 00:55:00,
2014-01-21 18:10:00,16.4,7.0,30.73,SSW,196,0.0,-999.0,67,-99.99,,,0.00,weatherlink.com 1.10,2014-01-22 01:10:00,
2014-01-21 18:25:00,16.2,7.0,30.73,SSW,196,0.0,-999.0,67,-99.99,,,0.00,weatherlink.com 1.10,2014-01-22 01:25:00,
2014-01-21 18:40:00,16.2,7.0,30.73,SSW,196,0.0,-999.0,67,-99.99,,,0.00,weatherlink.com 1.10,2014-01-22 01:40:00,
2014-01-21 18:55:00,15.9,7.0,30.73,SSW,196,0.0,-999.0,67,-99.99,,,0.00,weatherlink.com 1.10,2014-01-22 01:55:00,
2014-01-21 19:10:00,15.3,7.0,30.73,SSW,196,0.0,-999.0,69,-99.99,,,0.00,weatherlink.com 1.10,2014-01-22 02:10:00,
2014-01-21 19:25:00,15.1,7.0,30.73,SSW,196,0.0,-999.0,71,-99.99,,,0.00,weatherlink.com 1.10,2014-01-22 02:25:00,
2014-01-21 19:40:00,14.9,7.0,30.73,SSW,196,0.0,-999.0,71,-99.99,,,0.00,weatherlink.com 1.10,2014-01-22 02:40:00,
2014-01-21 19:55:00,15.0,8.0,30.73,SSW,196,0.0,-999.0,72,-99.99,,,0.00,weatherlink.com 1.10,2014-01-22 02:55:00,
2014-01-21 20:10:00,15.3,7.0,30.73,SSW,196,0.0,-999.0,71,-99.99,,,0.00,weatherlink.com 1.10,2014-01-22 03:10:00,
2014-01-21 20:25:00,15.0,8.0,30.73,SSW,196,0.0,-999.0,72,-99.99,,,0.00,weatherlink.com 1.10,2014-01-22 03:25:00,
2014-01-21 20:40:00,14.7,7.0,30.72,SSW,196,0.0,-999.0,71,-99.99,,,0.00,weatherlink.com 1.10,2014-01-22 03:40:00,
2014-01-21 20:55:00,14.2,7.0,30.72,SSW,196,0.0,-999.0,72,-99.99,,,0.00,weatherlink.com 1.10,2014-01-22 03:55:00,
2014-01-21 21:10:00,13.8,7.0,30.72,SSW,196,0.0,-999.0,74,-99.99,,,0.00,weatherlink.com 1.10,2014-01-22 04:10:00,
2014-01-21 21:25:00,13.7,7.0,30.72,SSW,196,0.0,-999.0,76,-99.99,,,0.00,weatherlink.com 1.10,2014-01-22 04:25:00,
2014-01-21 21:40:00,13.8,8.0,30.72,SSW,196,0.0,-999.0,76,-99.99,,,0.00,weatherlink.com 1.10,2014-01-22 04:40:00,
2014-01-21 21:55:00,13.6,7.0,30.72,SSW,196,0.0,-999.0,75,-99.99,,,0.00,weatherlink.com 1.10,2014-01-22 04:55:00,
2014-01-21 22:10:00,13.3,7.0,30.72,SSW,196,0.0,-999.0,76,-99.99,,,0.00,weatherlink.com 1.10,2014-01-22 05:10:00,
2014-01-21 22:25:00,13.4,7.0,30.72,SSW,196,0.0,-999.0,76,-99.99,,,0.00,weatherlink.com 1.10,2014-01-22 05:25:00,
2014-01-21 22:40:00,13.5,7.0,30.72,SSW,196,0.0,-999.0,75,-99.99,,,0.00,weatherlink.com 1.10,2014-01-22 05:40:00,
2014-01-21 22:55:00,13.1,7.0,30.71,SSW,196,0.0,-999.0,76,-99.99,,,0.00,weatherlink.com 1.10,2014-01-22 05:55:00,
2014-01-21 23:10:00,13.0,7.0,30.71,SSW,196,0.0,-999.0,76,-99.99,,,0.00,weatherlink.com 1.10,2014-01-22 06:10:00,
2014-01-21 23:25:00,12.4,7.0,30.71,SSW,196,0.0,-999.0,77,-99.99,,,0.00,weatherlink.com 1.10,2014-01-22 06:25:00,
2014-01-21 23:40:00,11.6,6.0,30.72,SSW,196,0.0,-999.0,78,-99.99,,,0.00,weatherlink.com 1.10,2014-01-22 06:40:00,
2014-01-21 23:55:00,11.4,6.0,30.72,SSW,196,0.0,-999.0,79,-99.99,,,0.00,weatherlink.com 1.10,2014-01-22 06:55:00,